Time;durP1;ratioP1;P1;durP2;ratioP2;P2;SDS_P1;SDS_P2;PMS_P1;PMS_P2;Temp;Humidity;BMP_temperature;BMP_pressure;BME280_temperature;BME280_humidity;BME280_pressure;Samples;Min_cycle;Max_cycle;Signal;HPM_P1;HPM_P2
2023/12/14 00:02:10;;;;;;;3.97;2.10;;;11.80;48.60;;;;;;5050996;28;20427;-58
2023/12/14 00:04:36;;;;;;;4.80;1.30;;;11.70;48.70;;;;;;5051018;28;20478;-52
2023/12/14 00:07:02;;;;;;;8.93;3.03;;;11.70;48.90;;;;;;5050810;28;20467;-52
2023/12/14 00:09:27;;;;;;;2.40;1.77;;;11.70;48.90;;;;;;5059455;28;20443;-54
2023/12/14 00:11:53;;;;;;;3.63;2.20;;;11.70;48.80;;;;;;5062616;28;20407;-51
2023/12/14 00:14:19;;;;;;;4.57;4.17;;;11.70;48.90;;;;;;5072285;28;20411;-52
2023/12/14 00:16:45;;;;;;;2.57;2.30;;;11.70;49.00;;;;;;5057922;28;20876;-55
2023/12/14 00:19:11;;;;;;;2.33;1.70;;;11.70;49.10;;;;;;5074475;28;20936;-52
2023/12/14 00:21:37;;;;;;;14.13;2.70;;;11.70;49.00;;;;;;5074388;28;20407;-52
2023/12/14 00:24:03;;;;;;;5.97;2.73;;;11.70;48.90;;;;;;5074415;28;20514;-54
2023/12/14 00:26:29;;;;;;;4.70;3.33;;;11.70;48.90;;;;;;5074226;28;20463;-52
2023/12/14 00:28:55;;;;;;;8.57;3.27;;;11.70;48.70;;;;;;5074313;28;20203;-52
2023/12/14 00:31:20;;;;;;;3.57;2.50;;;11.80;48.60;;;;;;5067507;28;20905;-55
2023/12/14 00:33:46;;;;;;;5.27;2.67;;;11.80;48.60;;;;;;5054192;28;20779;-55
2023/12/14 00:36:19;;;;;;;1.47;1.37;;;11.70;48.60;;;;;;5054504;28;20762;-49
2023/12/14 00:38:45;;;;;;;5.65;2.95;;;11.70;48.70;;;;;;5054055;28;20462;-56
2023/12/14 00:41:11;;;;;;;4.82;1.60;;;11.70;48.70;;;;;;5054311;28;20622;-53
2023/12/14 00:43:38;;;;;;;2.60;1.70;;;11.70;48.70;;;;;;5055217;28;20197;-53
2023/12/14 00:46:04;;;;;;;16.33;4.07;;;11.70;48.80;;;;;;5074080;28;20454;-56
2023/12/14 00:48:30;;;;;;;6.80;2.73;;;11.70;48.70;;;;;;5073756;28;20219;-51
2023/12/14 00:50:55;;;;;;;5.20;2.30;;;11.80;48.70;;;;;;5073952;28;20411;-53
2023/12/14 00:53:21;;;;;;;4.70;2.80;;;11.80;48.60;;;;;;5058740;28;20418;-55
2023/12/14 00:55:47;;;;;;;3.53;2.53;;;11.80;48.60;;;;;;5070445;28;20415;-56
2023/12/14 00:58:13;;;;;;;2.80;2.47;;;11.80;48.50;;;;;;5053588;28;20250;-51
2023/12/14 01:00:39;;;;;;;9.20;2.30;;;11.80;48.60;;;;;;5053688;28;20181;-52
2023/12/14 01:03:05;;;;;;;3.93;3.53;;;11.80;48.60;;;;;;5058366;28;20407;-55
2023/12/14 01:05:31;;;;;;;4.80;2.40;;;11.80;48.50;;;;;;5073531;28;20454;-52
2023/12/14 01:07:57;;;;;;;3.83;2.43;;;11.80;48.50;;;;;;5073371;28;20433;-52
2023/12/14 01:10:23;;;;;;;4.40;3.33;;;11.80;48.40;;;;;;5066749;28;20415;-53
2023/12/14 01:12:49;;;;;;;2.17;2.07;;;11.80;48.40;;;;;;5053561;28;20407;-52
2023/12/14 01:15:14;;;;;;;8.97;2.70;;;11.80;48.30;;;;;;5053539;28;20457;-49
2023/12/14 01:17:40;;;;;;;4.87;3.60;;;11.80;48.30;;;;;;5062576;28;20434;-56
2023/12/14 01:20:10;;;;;;;6.10;3.17;;;11.80;48.30;;;;;;5060599;28;20424;-56
2023/12/14 01:22:36;;;;;;;3.05;2.40;;;11.80;48.40;;;;;;5062169;28;20547;-50
2023/12/14 01:25:02;;;;;;;2.97;1.80;;;11.80;48.40;;;;;;5069021;28;20663;-52
2023/12/14 01:27:28;;;;;;;2.95;1.85;;;11.80;48.60;;;;;;5052511;28;20782;-54
2023/12/14 01:29:54;;;;;;;6.87;3.73;;;11.80;48.60;;;;;;5053484;28;20177;-50
2023/12/14 01:32:20;;;;;;;6.68;3.25;;;11.80;48.60;;;;;;5053271;28;20495;-53
2023/12/14 01:34:46;;;;;;;7.80;2.80;;;11.80;48.60;;;;;;5053484;28;20257;-56
2023/12/14 01:37:12;;;;;;;1.30;1.20;;;11.90;48.60;;;;;;5053099;28;20925;-51
2023/12/14 01:39:38;;;;;;;9.10;4.73;;;11.80;48.50;;;;;;5053156;28;20189;-55
2023/12/14 01:42:04;;;;;;;5.77;3.03;;;11.90;48.50;;;;;;5053157;28;20174;-52
2023/12/14 01:44:30;;;;;;;5.75;2.10;;;11.90;48.60;;;;;;5053124;28;20200;-52
2023/12/14 01:46:55;;;;;;;3.03;2.23;;;11.90;48.60;;;;;;5052781;28;20586;-53
2023/12/14 01:49:21;;;;;;;9.47;2.97;;;11.80;48.60;;;;;;5052955;28;20933;-53
2023/12/14 01:51:47;;;;;;;4.03;1.70;;;11.80;48.80;;;;;;5053166;28;20422;-50
2023/12/14 01:54:13;;;;;;;2.50;1.70;;;11.80;48.80;;;;;;5052838;28;20432;-51
2023/12/14 01:56:40;;;;;;;2.80;2.40;;;11.80;48.80;;;;;;5052837;28;20408;-57
2023/12/14 01:59:06;;;;;;;5.18;2.75;;;11.80;48.80;;;;;;5052619;28;20526;-50
2023/12/14 02:01:45;;;;;;;5.63;2.33;;;11.90;48.90;;;;;;5052754;28;20177;-53
2023/12/14 02:04:14;;;;;;;1.63;1.52;;;11.80;48.70;;;;;;5052708;28;20202;-52
2023/12/14 02:06:41;;;;;;;9.18;3.00;;;11.80;48.80;;;;;;5052584;28;20208;-51
2023/12/14 02:09:07;;;;;;;2.38;2.17;;;11.80;48.80;;;;;;5052655;28;20196;-57
2023/12/14 02:11:32;;;;;;;9.53;2.43;;;11.80;49.60;;;;;;5052688;28;20203;-57
2023/12/14 02:14:08;;;;;;;4.63;2.43;;;11.80;48.90;;;;;;5052499;28;20751;-51
2023/12/14 02:16:34;;;;;;;1.80;1.67;;;11.80;48.90;;;;;;5052452;28;20425;-51
2023/12/14 02:19:00;;;;;;;6.10;3.50;;;11.80;48.80;;;;;;5052442;28;20730;-54
2023/12/14 02:21:26;;;;;;;5.20;2.25;;;11.80;48.60;;;;;;5052488;28;20477;-53
2023/12/14 02:23:52;;;;;;;3.55;2.45;;;11.80;48.70;;;;;;5052346;28;20185;-49
2023/12/14 02:26:17;;;;;;;1.80;1.00;;;11.80;48.60;;;;;;5051969;28;20197;-52
2023/12/14 02:28:43;;;;;;;5.23;2.00;;;11.70;48.60;;;;;;5052231;28;20431;-53
2023/12/14 02:31:09;;;;;;;3.73;1.50;;;11.80;48.70;;;;;;5052307;28;20398;-50
2023/12/14 02:33:35;;;;;;;3.80;2.73;;;11.80;48.70;;;;;;5052253;28;20685;-54
2023/12/14 02:36:03;;;;;;;1.67;1.43;;;11.70;48.70;;;;;;5052264;28;20423;-51
2023/12/14 02:38:29;;;;;;;2.97;2.05;;;11.70;48.60;;;;;;5051695;28;20452;-51
2023/12/14 02:40:55;;;;;;;4.75;2.50;;;11.70;48.50;;;;;;5052010;28;20180;-52
2023/12/14 02:43:23;;;;;;;11.70;3.60;;;11.70;48.60;;;;;;5052006;28;20169;-56
2023/12/14 02:45:49;;;;;;;2.22;1.30;;;11.70;48.50;;;;;;5052249;28;20787;-51
2023/12/14 02:48:15;;;;;;;3.17;1.88;;;11.60;48.40;;;;;;5051740;28;20197;-51
2023/12/14 02:50:41;;;;;;;9.02;3.78;;;11.60;48.50;;;;;;5051962;28;20260;-57
2023/12/14 02:53:07;;;;;;;4.72;2.75;;;11.60;48.60;;;;;;5051969;28;20214;-50
2023/12/14 02:55:33;;;;;;;7.13;3.57;;;11.60;48.60;;;;;;5051836;28;20260;-54
2023/12/14 02:57:59;;;;;;;4.90;3.10;;;11.60;48.60;;;;;;5051560;28;20434;-51
2023/12/14 03:00:25;;;;;;;9.50;5.37;;;11.60;48.70;;;;;;5051750;28;20412;-52
2023/12/14 03:02:50;;;;;;;5.23;3.00;;;11.60;48.70;;;;;;5051775;28;20416;-54
2023/12/14 03:05:16;;;;;;;3.83;1.70;;;11.60;48.60;;;;;;5051764;28;20407;-51
2023/12/14 03:07:42;;;;;;;3.80;3.10;;;11.60;48.60;;;;;;5051699;28;20428;-50
2023/12/14 03:10:09;;;;;;;4.77;2.27;;;11.70;48.70;;;;;;5051667;28;20804;-53
2023/12/14 03:12:34;;;;;;;3.67;1.98;;;11.70;48.70;;;;;;5051914;28;20404;-55
2023/12/14 03:15:00;;;;;;;2.23;1.87;;;11.70;48.70;;;;;;5051929;28;20203;-51
2023/12/14 03:17:26;;;;;;;2.70;1.43;;;11.60;48.70;;;;;;5051646;28;20435;-51
2023/12/14 03:19:52;;;;;;;4.30;1.97;;;11.70;48.90;;;;;;5051740;28;20408;-53
2023/12/14 03:22:18;;;;;;;1.90;1.70;;;11.70;48.90;;;;;;5051619;28;20407;-56
2023/12/14 03:24:44;;;;;;;2.30;2.03;;;11.70;48.80;;;;;;5051673;28;20483;-50
2023/12/14 03:27:10;;;;;;;2.13;1.70;;;11.70;48.90;;;;;;5051462;28;20462;-56
2023/12/14 03:29:35;;;;;;;3.33;3.03;;;11.70;48.90;;;;;;5051517;28;20420;-57
2023/12/14 03:32:01;;;;;;;2.37;1.87;;;11.70;48.90;;;;;;5051542;28;20400;-49
2023/12/14 03:34:27;;;;;;;9.13;2.47;;;11.70;49.00;;;;;;5051669;28;20408;-51
2023/12/14 03:36:53;;;;;;;2.50;1.77;;;11.70;49.00;;;;;;5051394;28;20916;-57
2023/12/14 03:39:19;;;;;;;5.00;2.87;;;11.70;49.00;;;;;;5051225;28;20455;-56
2023/12/14 03:41:45;;;;;;;2.17;2.00;;;11.60;49.00;;;;;;5051502;28;20462;-49
2023/12/14 03:44:11;;;;;;;5.57;2.60;;;11.60;49.20;;;;;;5051606;28;20408;-53
2023/12/14 03:46:38;;;;;;;8.57;3.15;;;11.50;49.30;;;;;;5051192;28;20566;-51
2023/12/14 03:49:04;;;;;;;10.48;2.95;;;11.60;49.30;;;;;;5052160;28;20192;-50
2023/12/14 03:51:30;;;;;;;5.28;3.80;;;11.50;49.40;;;;;;5055292;28;20317;-55
2023/12/14 03:53:56;;;;;;;5.70;3.50;;;11.60;49.30;;;;;;5055146;28;20227;-50
2023/12/14 03:56:22;;;;;;;3.38;1.15;;;11.60;49.40;;;;;;5055039;28;20212;-50
2023/12/14 03:58:48;;;;;;;5.47;2.50;;;11.60;49.30;;;;;;5055064;28;20197;-57
2023/12/14 04:01:21;;;;;;;3.77;2.77;;;11.60;49.30;;;;;;5055072;28;20227;-56
2023/12/14 04:03:48;;;;;;;7.82;2.58;;;11.60;49.20;;;;;;5055051;28;20901;-50
2023/12/14 04:06:14;;;;;;;1.45;1.15;;;11.70;49.30;;;;;;5054861;28;20215;-52
2023/12/14 04:08:41;;;;;;;5.35;2.60;;;11.70;49.30;;;;;;5054717;28;20849;-54
2023/12/14 04:11:07;;;;;;;2.55;2.33;;;11.70;50.00;;;;;;5054969;28;20169;-50
2023/12/14 04:13:34;;;;;;;6.05;4.57;;;11.70;49.20;;;;;;5054845;28;20185;-52
2023/12/14 04:16:00;;;;;;;8.98;2.35;;;11.70;49.20;;;;;;5054883;28;20204;-50
2023/12/14 04:18:26;;;;;;;4.00;2.58;;;11.70;49.30;;;;;;5054574;28;20189;-51
2023/12/14 04:20:52;;;;;;;1.50;1.17;;;11.70;49.40;;;;;;5054596;28;20181;-55
2023/12/14 04:23:18;;;;;;;1.90;1.80;;;11.70;49.40;;;;;;5054687;28;20459;-51
2023/12/14 04:25:44;;;;;;;3.10;2.10;;;11.80;49.30;;;;;;5054756;28;20459;-50
2023/12/14 04:28:10;;;;;;;5.97;3.55;;;11.70;49.40;;;;;;5054510;28;20203;-56
2023/12/14 04:30:36;;;;;;;4.87;3.03;;;11.80;49.30;;;;;;5054524;28;20627;-56
2023/12/14 04:33:02;;;;;;;3.53;2.47;;;11.80;49.30;;;;;;5054407;28;20979;-49
2023/12/14 04:35:28;;;;;;;2.13;1.40;;;11.80;49.30;;;;;;5054445;28;20414;-53
2023/12/14 04:37:54;;;;;;;3.07;2.77;;;11.80;49.40;;;;;;5054112;28;21132;-55
2023/12/14 04:40:19;;;;;;;2.27;1.80;;;11.80;49.50;;;;;;5054350;28;20411;-50
2023/12/14 04:42:45;;;;;;;2.13;1.93;;;11.70;49.50;;;;;;5054415;28;20176;-50
2023/12/14 04:45:12;;;;;;;2.43;1.57;;;11.70;49.60;;;;;;5054240;28;20414;-55
2023/12/14 04:47:38;;;;;;;6.97;2.97;;;11.70;49.50;;;;;;5053929;28;20427;-51
2023/12/14 04:50:05;;;;;;;2.23;1.73;;;11.70;49.70;;;;;;5054098;28;20169;-50
2023/12/14 04:52:30;;;;;;;2.65;1.80;;;11.70;49.70;;;;;;5054113;28;20735;-52
2023/12/14 04:54:56;;;;;;;3.00;2.80;;;11.70;49.80;;;;;;5054075;28;20173;-53
2023/12/14 04:57:22;;;;;;;14.90;5.20;;;11.70;50.40;;;;;;5052710;28;20435;-50
2023/12/14 04:59:48;;;;;;;2.90;2.60;;;11.70;49.90;;;;;;5053768;28;20427;-53
2023/12/14 05:02:14;;;;;;;4.23;3.93;;;11.70;49.90;;;;;;5052913;28;20415;-56
2023/12/14 05:04:40;;;;;;;4.03;2.40;;;11.60;49.80;;;;;;5053823;28;20181;-52
2023/12/14 05:07:05;;;;;;;3.47;2.77;;;11.70;50.00;;;;;;5053703;28;20541;-56
2023/12/14 05:09:31;;;;;;;2.93;2.73;;;11.70;50.20;;;;;;5053658;28;20231;-55
2023/12/14 05:11:58;;;;;;;1.93;1.73;;;11.70;50.30;;;;;;5053776;28;20423;-51
2023/12/14 05:14:24;;;;;;;5.82;3.50;;;11.60;50.10;;;;;;5053671;28;20264;-57
2023/12/14 05:16:50;;;;;;;3.70;2.08;;;11.60;50.10;;;;;;5053551;28;20189;-51
2023/12/14 05:19:16;;;;;;;4.77;3.87;;;11.60;50.10;;;;;;5053558;28;20189;-53
2023/12/14 05:21:42;;;;;;;6.67;3.80;;;11.70;50.30;;;;;;5053611;28;20408;-54
2023/12/14 05:24:07;;;;;;;6.30;2.40;;;11.70;50.20;;;;;;5053639;28;20403;-56
2023/12/14 05:26:33;;;;;;;4.33;3.27;;;11.60;50.80;;;;;;5053264;28;20991;-51
2023/12/14 05:28:59;;;;;;;6.90;2.80;;;11.60;50.60;;;;;;5053500;28;20427;-52
2023/12/14 05:31:25;;;;;;;4.00;2.40;;;11.60;50.60;;;;;;5053414;28;20404;-56
2023/12/14 05:33:51;;;;;;;1.83;1.08;;;11.60;50.50;;;;;;5053198;28;20893;-51
2023/12/14 05:36:17;;;;;;;2.30;2.10;;;11.60;50.60;;;;;;5053393;28;20177;-55
2023/12/14 05:38:44;;;;;;;2.13;1.63;;;11.60;50.70;;;;;;5053041;28;20976;-55
2023/12/14 05:41:10;;;;;;;3.92;2.40;;;11.60;50.70;;;;;;5053281;28;20412;-51
2023/12/14 05:43:36;;;;;;;6.90;4.05;;;11.70;50.70;;;;;;5053252;28;20192;-57
2023/12/14 05:46:03;;;;;;;1.73;1.08;;;11.70;50.70;;;;;;5053171;28;20197;-57
2023/12/14 05:48:29;;;;;;;2.22;1.65;;;11.60;50.90;;;;;;5052790;28;20205;-50
2023/12/14 05:50:57;;;;;;;5.00;3.92;;;11.60;50.80;;;;;;5053031;28;20205;-54
2023/12/14 05:53:23;;;;;;;3.35;2.92;;;11.60;50.80;;;;;;5052890;28;20230;-52
2023/12/14 05:55:49;;;;;;;2.70;1.80;;;11.70;51.00;;;;;;5053028;28;20212;-53
2023/12/14 05:58:15;;;;;;;3.00;1.67;;;11.70;51.00;;;;;;5052829;28;20213;-52
2023/12/14 06:00:41;;;;;;;5.28;2.90;;;11.70;51.00;;;;;;5052841;28;20400;-54
2023/12/14 06:03:07;;;;;;;12.27;3.23;;;11.60;50.80;;;;;;5052628;28;20208;-56
2023/12/14 06:05:32;;;;;;;7.27;3.43;;;11.60;51.30;;;;;;5052650;28;20447;-51
2023/12/14 06:07:58;;;;;;;3.73;1.80;;;11.60;51.70;;;;;;5052626;28;20435;-51
2023/12/14 06:10:24;;;;;;;3.53;1.57;;;11.60;51.10;;;;;;5052630;28;20908;-53
2023/12/14 06:12:50;;;;;;;2.00;1.80;;;11.60;51.00;;;;;;5052224;28;20404;-54
2023/12/14 06:15:16;;;;;;;2.47;1.33;;;11.60;51.10;;;;;;5052582;28;20419;-49
2023/12/14 06:17:42;;;;;;;2.73;1.90;;;11.60;51.00;;;;;;5052180;28;20217;-53
2023/12/14 06:20:09;;;;;;;6.65;2.33;;;11.60;50.90;;;;;;5052643;28;20399;-56
2023/12/14 06:22:38;;;;;;;3.15;2.10;;;11.60;50.90;;;;;;5052297;28;20173;-51
2023/12/14 06:25:04;;;;;;;2.42;1.73;;;11.60;51.10;;;;;;5052390;28;20169;-53
2023/12/14 06:27:30;;;;;;;6.75;2.20;;;11.60;51.20;;;;;;5052169;28;20201;-54
2023/12/14 06:29:56;;;;;;;7.63;2.43;;;11.50;51.20;;;;;;5052241;28;20513;-51
2023/12/14 06:32:22;;;;;;;2.60;2.27;;;11.50;51.30;;;;;;5052161;28;20411;-50
2023/12/14 06:34:48;;;;;;;1.33;1.10;;;11.50;51.20;;;;;;5052484;28;20415;-54
2023/12/14 06:37:14;;;;;;;3.88;2.08;;;11.50;51.20;;;;;;5051869;28;20408;-55
2023/12/14 06:39:43;;;;;;;2.70;1.43;;;11.60;51.20;;;;;;5052220;28;20189;-50
2023/12/14 06:42:09;;;;;;;2.38;2.00;;;11.60;51.10;;;;;;5052050;28;20436;-54
2023/12/14 06:44:35;;;;;;;1.20;0.90;;;11.60;51.10;;;;;;5052053;28;20219;-50
2023/12/14 06:47:01;;;;;;;1.30;1.00;;;11.60;51.00;;;;;;5051805;28;20458;-52
2023/12/14 06:49:27;;;;;;;5.17;2.00;;;11.50;51.10;;;;;;5052026;28;20189;-55
2023/12/14 06:51:53;;;;;;;2.03;1.57;;;11.60;51.10;;;;;;5052062;28;20396;-50
2023/12/14 06:54:19;;;;;;;7.63;6.07;;;11.60;51.10;;;;;;5052076;28;20417;-52
2023/12/14 06:56:45;;;;;;;2.95;1.40;;;11.60;51.00;;;;;;5051795;28;20817;-54
2023/12/14 06:59:11;;;;;;;6.80;2.40;;;11.50;51.00;;;;;;5051644;28;20193;-50
2023/12/14 07:01:36;;;;;;;5.43;2.63;;;11.60;50.80;;;;;;5051903;28;20412;-50
2023/12/14 07:04:03;;;;;;;3.30;2.23;;;11.60;50.80;;;;;;5051780;28;20435;-53
2023/12/14 07:06:30;;;;;;;6.38;2.63;;;11.60;50.60;;;;;;5051507;28;20544;-56
2023/12/14 07:08:56;;;;;;;2.15;1.63;;;11.50;50.40;;;;;;5051820;28;20189;-52
2023/12/14 07:11:21;;;;;;;8.25;3.10;;;11.50;50.30;;;;;;5051725;28;20723;-51
2023/12/14 07:13:47;;;;;;;2.97;2.77;;;11.40;50.30;;;;;;5051690;28;20169;-58
2023/12/14 07:16:14;;;;;;;6.37;2.23;;;11.40;50.50;;;;;;5051938;28;20910;-49
2023/12/14 07:18:41;;;;;;;1.38;1.27;;;11.30;50.60;;;;;;5051461;28;20975;-51
2023/12/14 07:21:08;;;;;;;5.85;2.40;;;11.30;50.70;;;;;;5051624;28;20169;-57
2023/12/14 07:23:35;;;;;;;7.30;1.60;;;11.30;50.80;;;;;;5051742;28;20655;-57
2023/12/14 07:26:01;;;;;;;2.45;2.25;;;11.30;50.80;;;;;;5055631;28;20232;-53
2023/12/14 07:28:27;;;;;;;4.15;2.92;;;11.30;50.80;;;;;;5055438;28;20264;-56
2023/12/14 07:30:53;;;;;;;3.85;3.15;;;11.20;50.70;;;;;;5055815;28;20177;-51
2023/12/14 07:33:19;;;;;;;4.80;2.33;;;11.20;50.70;;;;;;5055803;28;20239;-53
2023/12/14 07:35:45;;;;;;;1.53;1.37;;;11.20;50.70;;;;;;5055588;28;20900;-57
2023/12/14 07:38:12;;;;;;;1.20;1.00;;;11.20;50.70;;;;;;5055324;28;20960;-53
2023/12/14 07:40:41;;;;;;;2.45;2.22;;;11.20;50.80;;;;;;5055537;28;20219;-50
2023/12/14 07:43:07;;;;;;;3.78;1.60;;;11.30;50.80;;;;;;5055286;28;20181;-55
2023/12/14 07:45:34;;;;;;;3.35;2.55;;;11.20;50.60;;;;;;5055332;28;20215;-57
2023/12/14 07:47:59;;;;;;;6.25;3.53;;;11.30;50.80;;;;;;5055250;28;20190;-51
2023/12/14 07:50:26;;;;;;;4.50;3.27;;;11.20;50.70;;;;;;5055262;28;20169;-58
2023/12/14 07:52:53;;;;;;;2.20;1.65;;;11.30;50.80;;;;;;5055235;28;20407;-57
2023/12/14 07:55:19;;;;;;;5.78;1.75;;;11.30;50.80;;;;;;5055394;28;20182;-51
2023/12/14 07:57:45;;;;;;;2.67;2.47;;;11.30;50.80;;;;;;5054890;28;20197;-53
2023/12/14 08:00:12;;;;;;;1.87;1.50;;;11.30;50.70;;;;;;5055127;28;20172;-56
2023/12/14 08:02:38;;;;;;;1.92;1.83;;;11.30;50.70;;;;;;5055090;28;20430;-50
2023/12/14 08:05:04;;;;;;;1.75;1.27;;;11.30;50.60;;;;;;5055009;28;20586;-53
2023/12/14 08:07:32;;;;;;;1.77;0.90;;;11.30;50.60;;;;;;5054693;28;20587;-53
2023/12/14 08:09:59;;;;;;;2.40;1.42;;;11.30;50.60;;;;;;5054858;28;20181;-50
2023/12/14 08:12:25;;;;;;;3.38;2.00;;;11.30;50.60;;;;;;5054837;28;20239;-54
2023/12/14 08:14:51;;;;;;;2.10;1.52;;;11.20;50.40;;;;;;5054968;28;20199;-57
2023/12/14 08:17:17;;;;;;;2.97;1.92;;;11.30;50.60;;;;;;5054526;28;20187;-52
2023/12/14 08:19:44;;;;;;;3.17;2.03;;;11.20;50.60;;;;;;5054925;28;20256;-57
2023/12/14 08:22:12;;;;;;;6.35;2.67;;;11.20;50.40;;;;;;5054711;28;20435;-52
2023/12/14 08:24:43;;;;;;;1.90;0.93;;;11.20;50.50;;;;;;5054618;28;20181;-54
2023/12/14 08:27:09;;;;;;;1.65;1.52;;;11.10;50.70;;;;;;5054396;28;20671;-50
2023/12/14 08:29:35;;;;;;;3.30;1.42;;;11.10;50.70;;;;;;5054739;28;20246;-50
2023/12/14 08:32:01;;;;;;;4.25;2.75;;;11.10;50.70;;;;;;5054672;28;20185;-54
2023/12/14 08:34:28;;;;;;;2.70;1.27;;;11.20;50.80;;;;;;5054439;28;20197;-51
2023/12/14 08:36:54;;;;;;;2.75;2.33;;;11.20;50.70;;;;;;5054084;28;20411;-56
2023/12/14 08:39:20;;;;;;;1.00;0.70;;;11.20;50.70;;;;;;5052840;28;20567;-50
2023/12/14 08:41:47;;;;;;;1.37;0.80;;;11.20;50.60;;;;;;5054386;28;20177;-50
2023/12/14 08:44:13;;;;;;;2.75;1.10;;;11.20;50.70;;;;;;5054449;28;20408;-56
2023/12/14 08:46:45;;;;;;;1.10;0.82;;;11.10;50.70;;;;;;5054122;28;20588;-51
2023/12/14 08:49:11;;;;;;;1.45;0.93;;;11.10;50.70;;;;;;5054212;28;20272;-57
2023/12/14 08:51:38;;;;;;;0.90;0.50;;;11.10;50.80;;;;;;5054033;28;20726;-50
2023/12/14 08:54:04;;;;;;;3.63;1.60;;;11.00;50.80;;;;;;5054113;28;20801;-53
2023/12/14 08:56:30;;;;;;;3.10;1.75;;;11.00;50.80;;;;;;5053960;28;20181;-56
2023/12/14 08:58:57;;;;;;;1.38;1.02;;;11.10;51.00;;;;;;5053955;28;20193;-51
2023/12/14 09:01:23;;;;;;;1.33;0.82;;;11.10;50.90;;;;;;5054010;28;20517;-49
2023/12/14 09:03:50;;;;;;;2.70;1.58;;;11.10;50.90;;;;;;5053943;28;20215;-55
2023/12/14 09:06:19;;;;;;;1.38;0.90;;;11.10;50.80;;;;;;5053705;28;20193;-52
2023/12/14 09:08:45;;;;;;;1.05;0.88;;;11.10;50.70;;;;;;5054060;28;20664;-57
2023/12/14 09:11:11;;;;;;;2.92;0.98;;;11.10;50.70;;;;;;5053776;28;20165;-56
2023/12/14 09:13:37;;;;;;;2.20;1.63;;;11.10;50.70;;;;;;5053808;28;20287;-51
2023/12/14 09:16:03;;;;;;;3.83;0.85;;;11.10;50.70;;;;;;5053701;28;20185;-51
2023/12/14 09:18:30;;;;;;;1.23;0.73;;;11.10;50.90;;;;;;5053515;28;20578;-56
2023/12/14 09:20:56;;;;;;;1.75;0.55;;;11.10;50.70;;;;;;5053498;28;20185;-55
2023/12/14 09:23:22;;;;;;;3.20;2.05;;;11.40;50.70;;;;;;5053643;28;20629;-53
2023/12/14 09:25:49;;;;;;;0.93;0.55;;;11.00;50.60;;;;;;5053647;28;20288;-52
2023/12/14 09:28:15;;;;;;;1.00;0.80;;;11.00;50.70;;;;;;5053304;28;20221;-53
2023/12/14 09:30:41;;;;;;;1.20;0.50;;;11.00;51.00;;;;;;5053564;28;20170;-57
2023/12/14 09:33:08;;;;;;;0.90;0.47;;;11.00;50.80;;;;;;5053317;28;20534;-57
2023/12/14 09:35:36;;;;;;;0.90;0.40;;;11.00;50.60;;;;;;5053362;28;20184;-50
2023/12/14 09:38:03;;;;;;;1.08;0.80;;;11.00;50.70;;;;;;5053026;28;20215;-52
2023/12/14 09:40:29;;;;;;;1.65;0.77;;;10.90;50.60;;;;;;5053389;28;20178;-55
2023/12/14 09:42:56;;;;;;;0.90;0.38;;;11.00;50.70;;;;;;5053369;28;20531;-56
2023/12/14 09:45:27;;;;;;;0.80;0.30;;;11.00;50.50;;;;;;5053154;28;20180;-50
2023/12/14 09:47:54;;;;;;;0.90;0.50;;;11.00;50.20;;;;;;5052215;28;20197;-56
2023/12/14 09:50:21;;;;;;;1.02;0.57;;;11.00;50.20;;;;;;5052981;28;20177;-54
2023/12/14 09:52:48;;;;;;;4.00;1.05;;;10.90;50.10;;;;;;5052939;28;20173;-51
2023/12/14 09:55:15;;;;;;;2.95;1.15;;;10.90;50.00;;;;;;5053163;28;20184;-51
2023/12/14 09:57:41;;;;;;;1.38;1.27;;;10.90;50.20;;;;;;5052783;28;20193;-55
2023/12/14 10:00:10;;;;;;;2.10;1.00;;;10.90;50.40;;;;;;5052896;28;20889;-55
2023/12/14 10:02:37;;;;;;;2.10;0.75;;;10.90;50.40;;;;;;5052654;28;20619;-51
2023/12/14 10:05:05;;;;;;;1.00;0.60;;;10.90;50.50;;;;;;5052892;28;20180;-56
2023/12/14 10:07:31;;;;;;;0.88;0.40;;;10.90;50.50;;;;;;5052557;28;20193;-56
2023/12/14 10:10:14;;;;;;;0.90;0.50;;;10.90;50.50;;;;;;5052704;28;20547;-50
2023/12/14 10:12:54;;;;;;;1.00;0.38;;;10.90;50.40;;;;;;5052603;28;20227;-52
2023/12/14 10:15:20;;;;;;;3.05;1.23;;;10.90;50.40;;;;;;5052624;28;20704;-56
2023/12/14 10:17:53;;;;;;;0.90;0.60;;;10.90;50.40;;;;;;5052348;28;20201;-50
2023/12/14 10:20:22;;;;;;;1.00;0.75;;;10.90;50.10;;;;;;5052508;28;20177;-54
2023/12/14 10:22:49;;;;;;;0.90;0.40;;;10.90;50.20;;;;;;5052496;28;20177;-51
2023/12/14 10:25:15;;;;;;;1.52;1.23;;;10.90;50.20;;;;;;5052509;28;20185;-50
2023/12/14 10:27:40;;;;;;;1.38;1.25;;;10.90;50.20;;;;;;5052035;28;20228;-56
2023/12/14 10:30:11;;;;;;;2.80;1.33;;;10.90;50.30;;;;;;5052324;28;20651;-57
2023/12/14 10:32:38;;;;;;;1.42;0.77;;;10.90;50.20;;;;;;5052451;28;20922;-52
2023/12/14 10:35:04;;;;;;;1.13;0.70;;;10.90;50.20;;;;;;5052316;28;20249;-49
2023/12/14 10:37:35;;;;;;;0.90;0.45;;;10.90;50.20;;;;;;5051900;28;20197;-56
2023/12/14 10:40:05;;;;;;;1.00;0.60;;;10.90;50.00;;;;;;5052120;28;20177;-57
2023/12/14 10:42:35;;;;;;;1.40;0.95;;;10.80;50.10;;;;;;5052032;28;20188;-51
2023/12/14 10:45:02;;;;;;;2.05;0.90;;;10.80;50.00;;;;;;5052342;28;20165;-50
2023/12/14 10:47:29;;;;;;;1.20;0.90;;;10.80;50.20;;;;;;5051717;28;20204;-57
2023/12/14 10:49:56;;;;;;;2.50;1.58;;;10.80;50.20;;;;;;5052131;28;20516;-50
2023/12/14 10:52:23;;;;;;;2.78;0.88;;;10.80;50.00;;;;;;5052021;28;20197;-51
2023/12/14 10:55:00;;;;;;;1.30;0.93;;;10.80;50.00;;;;;;5051911;28;20177;-57
2023/12/14 10:57:26;;;;;;;1.10;0.60;;;10.70;49.80;;;;;;5051770;28;20184;-56
2023/12/14 11:00:02;;;;;;;6.50;1.25;;;10.60;49.60;;;;;;5051922;28;20179;-50
2023/12/14 11:02:30;;;;;;;0.90;0.50;;;10.60;49.90;;;;;;5051975;28;20165;-56
2023/12/14 11:05:09;;;;;;;4.05;1.73;;;10.50;50.00;;;;;;5052009;28;20527;-56
2023/12/14 11:07:45;;;;;;;1.48;0.90;;;10.50;50.00;;;;;;5051587;28;20209;-50
2023/12/14 11:10:14;;;;;;;4.40;2.65;;;10.50;50.20;;;;;;5051945;28;20177;-57
2023/12/14 11:13:02;;;;;;;1.98;1.30;;;10.50;50.30;;;;;;5051793;28;20173;-57
2023/12/14 11:15:34;;;;;;;1.42;0.65;;;10.60;50.10;;;;;;5051769;28;20538;-51
2023/12/14 11:18:11;;;;;;;3.08;1.85;;;10.60;50.10;;;;;;5051612;28;20202;-55
2023/12/14 11:20:54;;;;;;;3.28;1.42;;;10.60;49.80;;;;;;5051639;28;20180;-50
2023/12/14 11:23:26;;;;;;;3.03;2.05;;;10.50;49.80;;;;;;5051713;28;20613;-56
2023/12/14 11:26:19;;;;;;;4.07;0.82;;;10.50;49.70;;;;;;5051626;28;20188;-49
2023/12/14 11:29:05;;;;;;;1.40;1.15;;;10.50;49.80;;;;;;5051606;28;20678;-53
2023/12/14 11:31:48;;;;;;;0.95;0.55;;;10.40;49.80;;;;;;5051424;28;20586;-57
2023/12/14 11:34:33;;;;;;;1.00;0.50;;;10.50;50.10;;;;;;5051535;28;20176;-50
2023/12/14 11:37:06;;;;;;;1.98;0.80;;;10.50;50.00;;;;;;5051516;28;20227;-53
2023/12/14 11:46:23;;;;;;;2.53;2.03;;;10.50;50.10;;;;;;5035050;28;20612;-51
2023/12/14 11:49:19;;;;;;;1.80;1.35;;;10.50;49.80;;;;;;5050144;28;20675;-55
2023/12/14 11:52:57;;;;;;;;;;;;;;;;;;;;;
2023/12/14 11:56:02;;;;;;;2.50;1.40;;;10.50;49.80;;;;;;5028710;28;20235;-51
2023/12/14 11:58:55;;;;;;;4.88;1.60;;;10.50;49.80;;;;;;5050829;28;20722;-50
2023/12/14 12:01:47;;;;;;;5.28;3.05;;;10.40;49.80;;;;;;5051180;28;20186;-57
2023/12/14 12:05:23;;;;;;;;;;;;;;;;;;;;;
2023/12/14 12:08:03;;;;;;;1.00;0.57;;;10.50;50.00;;;;;;4969024;28;20314;-56
2023/12/14 12:11:08;;;;;;;1.75;1.35;;;10.50;50.00;;;;;;4971562;28;20180;-51
2023/12/14 12:14:17;;;;;;;3.08;0.85;;;10.40;49.80;;;;;;4973906;28;20172;-50
2023/12/14 12:17:10;;;;;;;2.55;0.70;;;10.50;49.90;;;;;;4973767;28;20184;-58
2023/12/14 12:20:00;;;;;;;;;;;;;;;;;;;;;
2023/12/14 12:23:08;;;;;;;;;;;;;;;;;;;;;
2023/12/14 12:26:42;;;;;;;1.10;0.85;;;10.40;49.70;;;;;;4923023;28;20193;-52
2023/12/14 12:29:53;;;;;;;3.75;0.82;;;10.30;49.70;;;;;;4972382;28;20198;-52
2023/12/14 12:33:14;;;;;;;2.10;1.58;;;10.30;49.80;;;;;;4973337;28;20187;-52
2023/12/14 12:35:49;;;;;;;5.22;3.03;;;10.20;49.80;;;;;;4971958;28;20239;-51
2023/12/14 12:38:28;;;;;;;6.85;2.63;;;10.20;50.00;;;;;;4973133;28;20294;-57
2023/12/14 12:42:09;;;;;;;;;;;;;;;;;;;;;
2023/12/14 12:45:23;;;;;;;;;;;;;;;;;;;;;
2023/12/14 12:48:48;;;;;;;1.42;1.25;;;10.30;50.00;;;;;;5052965;28;20217;-53
2023/12/14 12:54:39;;;;;;;3.05;2.10;;;10.30;50.00;;;;;;5054223;28;20180;-50
2023/12/14 12:58:06;;;;;;;1.65;0.80;;;10.30;49.90;;;;;;5054003;28;20268;-50
2023/12/14 13:00:50;;;;;;;1.75;1.15;;;10.20;49.80;;;;;;5053818;28;20651;-49
2023/12/14 13:03:20;;;;;;;1.63;0.52;;;10.20;49.80;;;;;;5054030;28;20177;-56
2023/12/14 13:06:23;;;;;;;1.55;1.30;;;10.20;50.00;;;;;;5053857;28;20215;-52
2023/12/14 13:09:13;;;;;;;1.25;0.95;;;10.20;49.80;;;;;;5050476;28;20204;-53
2023/12/14 13:15:41;;;;;;;2.38;2.17;;;10.20;49.50;;;;;;5046482;28;20558;-50
2023/12/14 13:18:42;;;;;;;2.38;2.17;;;10.10;49.50;;;;;;5050926;28;20231;-52
2023/12/14 13:25:07;;;;;;;;;;;;;;;;;;;;;
2023/12/14 13:28:04;;;;;;;;;;;;;;;;;;;;;
2023/12/14 13:30:55;;;;;;;;;;;;;;;;;;;;;
2023/12/14 13:34:05;;;;;;;1.95;1.08;;;10.00;49.50;;;;;;5052042;28;20176;-56